sensor_id;sensor_type;location;lat;lon;timestamp;P1;durP1;ratioP1;P2;durP2;ratioP2
57828;SDS011;43657;52.698;6.314;2023-07-31T00:01:15;9.13;;;6.72;;
57828;SDS011;43657;52.698;6.314;2023-07-31T00:03:40;8.73;;;6.15;;
57828;SDS011;43657;52.698;6.314;2023-07-31T00:06:06;8.88;;;7.40;;
57828;SDS011;43657;52.698;6.314;2023-07-31T00:08:31;7.63;;;6.85;;
57828;SDS011;43657;52.698;6.314;2023-07-31T00:10:57;7.35;;;6.10;;
57828;SDS011;43657;52.698;6.314;2023-07-31T00:13:22;9.73;;;6.90;;
57828;SDS011;43657;52.698;6.314;2023-07-31T00:15:48;8.50;;;7.18;;
57828;SDS011;43657;52.698;6.314;2023-07-31T00:18:14;6.78;;;6.07;;
57828;SDS011;43657;52.698;6.314;2023-07-31T00:20:40;10.90;;;6.80;;
57828;SDS011;43657;52.698;6.314;2023-07-31T00:23:05;8.68;;;6.13;;
57828;SDS011;43657;52.698;6.314;2023-07-31T00:25:31;6.53;;;5.68;;
57828;SDS011;43657;52.698;6.314;2023-07-31T00:27:57;8.93;;;5.75;;
57828;SDS011;43657;52.698;6.314;2023-07-31T00:30:22;7.20;;;5.43;;
57828;SDS011;43657;52.698;6.314;2023-07-31T00:32:50;6.20;;;5.32;;
57828;SDS011;43657;52.698;6.314;2023-07-31T00:35:16;9.07;;;6.57;;
57828;SDS011;43657;52.698;6.314;2023-07-31T00:37:41;10.70;;;5.60;;
57828;SDS011;43657;52.698;6.314;2023-07-31T00:40:07;13.05;;;6.35;;
57828;SDS011;43657;52.698;6.314;2023-07-31T00:42:33;8.00;;;5.25;;
57828;SDS011;43657;52.698;6.314;2023-07-31T00:44:59;10.38;;;5.55;;
57828;SDS011;43657;52.698;6.314;2023-07-31T00:47:24;7.05;;;5.30;;
57828;SDS011;43657;52.698;6.314;2023-07-31T00:49:50;6.80;;;5.25;;
57828;SDS011;43657;52.698;6.314;2023-07-31T00:52:16;6.50;;;4.75;;
57828;SDS011;43657;52.698;6.314;2023-07-31T00:54:43;8.68;;;4.85;;
57828;SDS011;43657;52.698;6.314;2023-07-31T00:57:09;5.30;;;3.63;;
57828;SDS011;43657;52.698;6.314;2023-07-31T00:59:35;4.35;;;3.22;;
57828;SDS011;43657;52.698;6.314;2023-07-31T01:02:00;4.35;;;3.00;;
57828;SDS011;43657;52.698;6.314;2023-07-31T01:04:27;5.22;;;4.32;;
57828;SDS011;43657;52.698;6.314;2023-07-31T01:07:04;7.57;;;4.80;;
57828;SDS011;43657;52.698;6.314;2023-07-31T01:09:43;6.60;;;4.55;;
57828;SDS011;43657;52.698;6.314;2023-07-31T01:12:17;5.65;;;4.00;;
57828;SDS011;43657;52.698;6.314;2023-07-31T01:17:40;3.83;;;3.40;;
57828;SDS011;43657;52.698;6.314;2023-07-31T01:20:23;8.02;;;5.03;;
57828;SDS011;43657;52.698;6.314;2023-07-31T01:31:23;7.93;;;5.45;;
57828;SDS011;43657;52.698;6.314;2023-07-31T01:33:50;4.60;;;3.40;;
57828;SDS011;43657;52.698;6.314;2023-07-31T01:36:19;3.90;;;3.50;;
57828;SDS011;43657;52.698;6.314;2023-07-31T01:38:45;5.63;;;4.13;;
57828;SDS011;43657;52.698;6.314;2023-07-31T01:41:10;5.50;;;3.83;;
57828;SDS011;43657;52.698;6.314;2023-07-31T01:43:36;9.57;;;6.60;;
57828;SDS011;43657;52.698;6.314;2023-07-31T01:46:01;14.55;;;7.90;;
57828;SDS011;43657;52.698;6.314;2023-07-31T01:48:27;5.75;;;4.70;;
57828;SDS011;43657;52.698;6.314;2023-07-31T01:50:53;5.15;;;4.65;;
57828;SDS011;43657;52.698;6.314;2023-07-31T01:53:18;6.20;;;4.32;;
57828;SDS011;43657;52.698;6.314;2023-07-31T01:55:44;7.07;;;5.63;;
57828;SDS011;43657;52.698;6.314;2023-07-31T01:58:09;6.40;;;4.97;;
57828;SDS011;43657;52.698;6.314;2023-07-31T02:00:35;7.15;;;5.65;;
57828;SDS011;43657;52.698;6.314;2023-07-31T02:03:01;18.95;;;8.98;;
57828;SDS011;43657;52.698;6.314;2023-07-31T02:05:26;8.70;;;6.30;;
57828;SDS011;43657;52.698;6.314;2023-07-31T02:07:52;15.68;;;8.57;;
57828;SDS011;43657;52.698;6.314;2023-07-31T02:10:17;10.15;;;7.45;;
57828;SDS011;43657;52.698;6.314;2023-07-31T02:12:43;10.23;;;7.32;;
57828;SDS011;43657;52.698;6.314;2023-07-31T02:15:09;18.30;;;10.40;;
57828;SDS011;43657;52.698;6.314;2023-07-31T02:17:34;16.42;;;9.43;;
57828;SDS011;43657;52.698;6.314;2023-07-31T02:20:00;24.73;;;10.60;;
57828;SDS011;43657;52.698;6.314;2023-07-31T02:22:26;19.35;;;10.77;;
57828;SDS011;43657;52.698;6.314;2023-07-31T02:24:51;11.32;;;7.85;;
57828;SDS011;43657;52.698;6.314;2023-07-31T02:27:17;12.35;;;8.77;;
57828;SDS011;43657;52.698;6.314;2023-07-31T02:29:42;22.42;;;11.27;;
57828;SDS011;43657;52.698;6.314;2023-07-31T02:32:08;14.15;;;9.23;;
57828;SDS011;43657;52.698;6.314;2023-07-31T02:34:34;19.27;;;9.75;;
57828;SDS011;43657;52.698;6.314;2023-07-31T02:36:59;7.55;;;6.70;;
57828;SDS011;43657;52.698;6.314;2023-07-31T02:39:25;13.80;;;8.15;;
57828;SDS011;43657;52.698;6.314;2023-07-31T02:41:50;14.35;;;7.63;;
57828;SDS011;43657;52.698;6.314;2023-07-31T02:44:16;9.40;;;7.43;;
57828;SDS011;43657;52.698;6.314;2023-07-31T02:46:41;11.60;;;8.98;;
57828;SDS011;43657;52.698;6.314;2023-07-31T02:49:07;11.38;;;9.25;;
57828;SDS011;43657;52.698;6.314;2023-07-31T02:51:33;10.50;;;7.43;;
57828;SDS011;43657;52.698;6.314;2023-07-31T02:53:58;14.90;;;9.55;;
57828;SDS011;43657;52.698;6.314;2023-07-31T02:56:24;20.88;;;10.48;;
57828;SDS011;43657;52.698;6.314;2023-07-31T02:58:49;13.65;;;9.68;;
57828;SDS011;43657;52.698;6.314;2023-07-31T03:01:15;31.58;;;12.85;;
57828;SDS011;43657;52.698;6.314;2023-07-31T03:03:41;16.15;;;10.90;;
57828;SDS011;43657;52.698;6.314;2023-07-31T03:06:07;19.85;;;10.90;;
57828;SDS011;43657;52.698;6.314;2023-07-31T03:08:32;19.15;;;10.63;;
57828;SDS011;43657;52.698;6.314;2023-07-31T03:10:58;15.75;;;10.05;;
57828;SDS011;43657;52.698;6.314;2023-07-31T03:13:24;28.13;;;12.77;;
57828;SDS011;43657;52.698;6.314;2023-07-31T03:15:49;37.42;;;15.07;;
57828;SDS011;43657;52.698;6.314;2023-07-31T03:18:15;25.23;;;12.50;;
57828;SDS011;43657;52.698;6.314;2023-07-31T03:20:44;25.30;;;11.18;;
57828;SDS011;43657;52.698;6.314;2023-07-31T03:23:10;10.50;;;7.78;;
57828;SDS011;43657;52.698;6.314;2023-07-31T03:25:35;22.17;;;10.30;;
57828;SDS011;43657;52.698;6.314;2023-07-31T03:28:02;25.75;;;11.40;;
57828;SDS011;43657;52.698;6.314;2023-07-31T03:30:27;15.13;;;10.07;;
57828;SDS011;43657;52.698;6.314;2023-07-31T03:32:53;33.67;;;12.68;;
57828;SDS011;43657;52.698;6.314;2023-07-31T03:35:18;27.77;;;12.43;;
57828;SDS011;43657;52.698;6.314;2023-07-31T03:37:44;40.03;;;13.85;;
57828;SDS011;43657;52.698;6.314;2023-07-31T03:40:10;22.92;;;11.30;;
57828;SDS011;43657;52.698;6.314;2023-07-31T03:42:36;19.20;;;9.75;;
57828;SDS011;43657;52.698;6.314;2023-07-31T03:45:01;31.17;;;9.88;;
57828;SDS011;43657;52.698;6.314;2023-07-31T03:47:27;16.58;;;8.75;;
57828;SDS011;43657;52.698;6.314;2023-07-31T03:49:53;17.95;;;9.15;;
57828;SDS011;43657;52.698;6.314;2023-07-31T03:52:18;30.25;;;11.27;;
57828;SDS011;43657;52.698;6.314;2023-07-31T03:54:44;26.55;;;9.93;;
57828;SDS011;43657;52.698;6.314;2023-07-31T03:57:10;22.73;;;9.98;;
57828;SDS011;43657;52.698;6.314;2023-07-31T03:59:36;25.95;;;10.15;;
57828;SDS011;43657;52.698;6.314;2023-07-31T04:02:04;19.30;;;8.75;;
57828;SDS011;43657;52.698;6.314;2023-07-31T04:04:29;14.25;;;7.63;;
57828;SDS011;43657;52.698;6.314;2023-07-31T04:06:55;28.42;;;10.43;;
57828;SDS011;43657;52.698;6.314;2023-07-31T04:09:21;24.27;;;9.75;;
57828;SDS011;43657;52.698;6.314;2023-07-31T04:11:46;39.08;;;14.55;;
57828;SDS011;43657;52.698;6.314;2023-07-31T04:14:12;24.70;;;10.55;;
57828;SDS011;43657;52.698;6.314;2023-07-31T04:16:37;44.80;;;15.60;;
57828;SDS011;43657;52.698;6.314;2023-07-31T04:19:03;59.22;;;17.23;;
57828;SDS011;43657;52.698;6.314;2023-07-31T04:21:29;39.25;;;16.25;;
57828;SDS011;43657;52.698;6.314;2023-07-31T04:23:54;67.97;;;21.85;;
57828;SDS011;43657;52.698;6.314;2023-07-31T04:26:21;41.50;;;18.20;;
57828;SDS011;43657;52.698;6.314;2023-07-31T04:28:47;74.78;;;22.90;;
57828;SDS011;43657;52.698;6.314;2023-07-31T04:31:12;65.40;;;21.70;;
57828;SDS011;43657;52.698;6.314;2023-07-31T04:33:38;62.53;;;22.80;;
57828;SDS011;43657;52.698;6.314;2023-07-31T04:36:04;70.05;;;22.75;;
57828;SDS011;43657;52.698;6.314;2023-07-31T04:38:30;67.28;;;22.08;;
57828;SDS011;43657;52.698;6.314;2023-07-31T04:40:56;95.45;;;25.75;;
57828;SDS011;43657;52.698;6.314;2023-07-31T04:43:21;108.72;;;27.85;;
57828;SDS011;43657;52.698;6.314;2023-07-31T04:45:47;93.32;;;25.52;;
57828;SDS011;43657;52.698;6.314;2023-07-31T04:48:13;95.43;;;26.30;;
57828;SDS011;43657;52.698;6.314;2023-07-31T04:50:39;46.83;;;18.50;;
57828;SDS011;43657;52.698;6.314;2023-07-31T04:53:05;73.82;;;22.77;;
57828;SDS011;43657;52.698;6.314;2023-07-31T04:55:30;84.13;;;24.45;;
57828;SDS011;43657;52.698;6.314;2023-07-31T04:57:57;88.75;;;25.48;;
57828;SDS011;43657;52.698;6.314;2023-07-31T05:00:24;45.10;;;17.77;;
57828;SDS011;43657;52.698;6.314;2023-07-31T05:02:49;113.80;;;28.25;;
57828;SDS011;43657;52.698;6.314;2023-07-31T05:05:15;93.43;;;25.85;;
57828;SDS011;43657;52.698;6.314;2023-07-31T05:07:40;92.10;;;25.42;;
57828;SDS011;43657;52.698;6.314;2023-07-31T05:10:06;105.35;;;26.05;;
57828;SDS011;43657;52.698;6.314;2023-07-31T05:12:32;58.42;;;21.15;;
57828;SDS011;43657;52.698;6.314;2023-07-31T05:14:58;74.80;;;23.25;;
57828;SDS011;43657;52.698;6.314;2023-07-31T05:17:23;55.88;;;21.95;;
57828;SDS011;43657;52.698;6.314;2023-07-31T05:19:49;47.53;;;19.73;;
57828;SDS011;43657;52.698;6.314;2023-07-31T05:22:14;87.85;;;24.67;;
57828;SDS011;43657;52.698;6.314;2023-07-31T05:24:40;79.25;;;25.52;;
57828;SDS011;43657;52.698;6.314;2023-07-31T05:27:06;76.35;;;24.88;;
57828;SDS011;43657;52.698;6.314;2023-07-31T05:29:31;88.40;;;25.98;;
57828;SDS011;43657;52.698;6.314;2023-07-31T05:31:57;65.47;;;23.17;;
57828;SDS011;43657;52.698;6.314;2023-07-31T05:34:22;79.82;;;24.73;;
57828;SDS011;43657;52.698;6.314;2023-07-31T05:36:48;46.70;;;18.73;;
57828;SDS011;43657;52.698;6.314;2023-07-31T05:39:13;62.55;;;22.17;;
57828;SDS011;43657;52.698;6.314;2023-07-31T05:41:39;49.30;;;18.73;;
57828;SDS011;43657;52.698;6.314;2023-07-31T05:44:05;41.80;;;18.48;;
57828;SDS011;43657;52.698;6.314;2023-07-31T05:46:30;46.17;;;18.70;;
57828;SDS011;43657;52.698;6.314;2023-07-31T05:48:56;44.83;;;19.30;;
57828;SDS011;43657;52.698;6.314;2023-07-31T05:51:22;41.67;;;19.55;;
57828;SDS011;43657;52.698;6.314;2023-07-31T05:53:47;42.08;;;17.27;;
57828;SDS011;43657;52.698;6.314;2023-07-31T05:56:13;87.80;;;26.52;;
57828;SDS011;43657;52.698;6.314;2023-07-31T05:58:38;39.90;;;18.38;;
57828;SDS011;43657;52.698;6.314;2023-07-31T06:01:04;37.95;;;18.42;;
57828;SDS011;43657;52.698;6.314;2023-07-31T06:03:30;55.08;;;22.15;;
57828;SDS011;43657;52.698;6.314;2023-07-31T06:05:55;40.22;;;18.50;;
57828;SDS011;43657;52.698;6.314;2023-07-31T06:08:21;42.65;;;18.15;;
57828;SDS011;43657;52.698;6.314;2023-07-31T06:10:46;40.88;;;19.75;;
57828;SDS011;43657;52.698;6.314;2023-07-31T06:13:12;43.03;;;19.88;;
57828;SDS011;43657;52.698;6.314;2023-07-31T06:15:38;49.25;;;21.30;;
57828;SDS011;43657;52.698;6.314;2023-07-31T06:18:03;53.92;;;22.90;;
57828;SDS011;43657;52.698;6.314;2023-07-31T06:20:32;59.35;;;24.27;;
57828;SDS011;43657;52.698;6.314;2023-07-31T06:22:59;45.33;;;21.55;;
57828;SDS011;43657;52.698;6.314;2023-07-31T06:25:24;36.28;;;18.98;;
57828;SDS011;43657;52.698;6.314;2023-07-31T06:27:50;42.78;;;22.20;;
57828;SDS011;43657;52.698;6.314;2023-07-31T06:30:16;44.65;;;21.48;;
57828;SDS011;43657;52.698;6.314;2023-07-31T06:32:42;54.85;;;23.55;;
57828;SDS011;43657;52.698;6.314;2023-07-31T06:35:08;42.35;;;19.92;;
57828;SDS011;43657;52.698;6.314;2023-07-31T06:37:33;46.50;;;21.73;;
57828;SDS011;43657;52.698;6.314;2023-07-31T06:39:59;47.25;;;19.88;;
57828;SDS011;43657;52.698;6.314;2023-07-31T06:42:24;47.20;;;20.50;;
57828;SDS011;43657;52.698;6.314;2023-07-31T06:44:50;28.90;;;14.38;;
57828;SDS011;43657;52.698;6.314;2023-07-31T06:47:16;37.38;;;16.15;;
57828;SDS011;43657;52.698;6.314;2023-07-31T06:49:42;28.23;;;14.93;;
57828;SDS011;43657;52.698;6.314;2023-07-31T06:52:07;30.27;;;15.98;;
57828;SDS011;43657;52.698;6.314;2023-07-31T06:54:33;40.30;;;16.55;;
57828;SDS011;43657;52.698;6.314;2023-07-31T06:56:58;24.23;;;13.27;;
57828;SDS011;43657;52.698;6.314;2023-07-31T06:59:24;22.42;;;11.68;;
57828;SDS011;43657;52.698;6.314;2023-07-31T07:01:49;23.77;;;13.20;;
57828;SDS011;43657;52.698;6.314;2023-07-31T07:04:15;21.45;;;12.25;;
57828;SDS011;43657;52.698;6.314;2023-07-31T07:06:41;22.45;;;12.02;;
57828;SDS011;43657;52.698;6.314;2023-07-31T07:09:07;24.88;;;13.55;;
57828;SDS011;43657;52.698;6.314;2023-07-31T07:11:33;19.38;;;12.35;;
57828;SDS011;43657;52.698;6.314;2023-07-31T07:13:59;32.05;;;15.18;;
57828;SDS011;43657;52.698;6.314;2023-07-31T07:16:25;30.77;;;14.95;;
57828;SDS011;43657;52.698;6.314;2023-07-31T07:18:51;16.40;;;9.20;;
57828;SDS011;43657;52.698;6.314;2023-07-31T07:21:17;41.88;;;13.95;;
57828;SDS011;43657;52.698;6.314;2023-07-31T07:23:43;20.17;;;9.98;;
57828;SDS011;43657;52.698;6.314;2023-07-31T07:26:08;17.38;;;9.82;;
57828;SDS011;43657;52.698;6.314;2023-07-31T07:28:34;15.15;;;8.23;;
57828;SDS011;43657;52.698;6.314;2023-07-31T07:31:02;17.23;;;9.15;;
57828;SDS011;43657;52.698;6.314;2023-07-31T07:33:27;17.98;;;9.45;;
57828;SDS011;43657;52.698;6.314;2023-07-31T07:35:53;11.75;;;7.35;;
57828;SDS011;43657;52.698;6.314;2023-07-31T07:38:19;19.02;;;9.48;;
57828;SDS011;43657;52.698;6.314;2023-07-31T07:40:44;13.07;;;7.63;;
57828;SDS011;43657;52.698;6.314;2023-07-31T07:43:11;14.35;;;7.53;;
57828;SDS011;43657;52.698;6.314;2023-07-31T07:45:37;10.98;;;6.85;;
57828;SDS011;43657;52.698;6.314;2023-07-31T07:48:03;18.75;;;8.52;;
57828;SDS011;43657;52.698;6.314;2023-07-31T07:50:29;14.80;;;8.43;;
57828;SDS011;43657;52.698;6.314;2023-07-31T07:52:54;11.65;;;8.00;;
57828;SDS011;43657;52.698;6.314;2023-07-31T07:55:20;12.85;;;8.32;;
57828;SDS011;43657;52.698;6.314;2023-07-31T07:57:45;10.63;;;7.22;;
57828;SDS011;43657;52.698;6.314;2023-07-31T08:00:12;14.30;;;8.27;;
57828;SDS011;43657;52.698;6.314;2023-07-31T08:02:38;8.07;;;6.30;;
57828;SDS011;43657;52.698;6.314;2023-07-31T08:05:04;9.85;;;7.13;;
57828;SDS011;43657;52.698;6.314;2023-07-31T08:07:29;15.48;;;8.77;;
57828;SDS011;43657;52.698;6.314;2023-07-31T08:09:55;15.80;;;9.90;;
57828;SDS011;43657;52.698;6.314;2023-07-31T08:12:21;15.57;;;8.73;;
57828;SDS011;43657;52.698;6.314;2023-07-31T08:14:46;13.27;;;9.02;;
57828;SDS011;43657;52.698;6.314;2023-07-31T08:17:12;12.95;;;8.73;;
57828;SDS011;43657;52.698;6.314;2023-07-31T08:19:37;15.68;;;9.65;;
57828;SDS011;43657;52.698;6.314;2023-07-31T08:22:03;10.25;;;6.90;;
57828;SDS011;43657;52.698;6.314;2023-07-31T08:24:28;12.50;;;7.85;;
57828;SDS011;43657;52.698;6.314;2023-07-31T08:26:54;13.02;;;7.63;;
57828;SDS011;43657;52.698;6.314;2023-07-31T08:29:20;12.13;;;8.57;;
57828;SDS011;43657;52.698;6.314;2023-07-31T08:31:46;15.82;;;9.02;;
57828;SDS011;43657;52.698;6.314;2023-07-31T08:34:12;9.95;;;6.35;;
57828;SDS011;43657;52.698;6.314;2023-07-31T08:36:37;13.75;;;8.32;;
57828;SDS011;43657;52.698;6.314;2023-07-31T08:39:03;7.60;;;6.10;;
57828;SDS011;43657;52.698;6.314;2023-07-31T08:41:28;16.45;;;9.38;;
57828;SDS011;43657;52.698;6.314;2023-07-31T08:43:54;7.15;;;5.28;;
57828;SDS011;43657;52.698;6.314;2023-07-31T08:46:21;14.70;;;7.47;;
57828;SDS011;43657;52.698;6.314;2023-07-31T08:48:47;6.28;;;4.82;;
57828;SDS011;43657;52.698;6.314;2023-07-31T08:51:16;17.58;;;9.18;;
57828;SDS011;43657;52.698;6.314;2023-07-31T08:53:41;12.10;;;6.55;;
57828;SDS011;43657;52.698;6.314;2023-07-31T08:56:07;8.82;;;5.97;;
57828;SDS011;43657;52.698;6.314;2023-07-31T08:58:33;6.97;;;4.65;;
57828;SDS011;43657;52.698;6.314;2023-07-31T09:01:03;7.35;;;4.93;;
57828;SDS011;43657;52.698;6.314;2023-07-31T09:03:31;5.72;;;4.38;;
57828;SDS011;43657;52.698;6.314;2023-07-31T09:05:59;9.65;;;6.28;;
57828;SDS011;43657;52.698;6.314;2023-07-31T09:08:25;7.60;;;4.95;;
57828;SDS011;43657;52.698;6.314;2023-07-31T09:10:53;5.70;;;4.25;;
57828;SDS011;43657;52.698;6.314;2023-07-31T09:13:19;9.45;;;5.85;;
57828;SDS011;43657;52.698;6.314;2023-07-31T09:15:45;8.45;;;5.40;;
57828;SDS011;43657;52.698;6.314;2023-07-31T09:18:11;6.10;;;4.47;;
57828;SDS011;43657;52.698;6.314;2023-07-31T09:20:39;9.18;;;4.43;;
57828;SDS011;43657;52.698;6.314;2023-07-31T09:23:08;7.10;;;4.22;;
57828;SDS011;43657;52.698;6.314;2023-07-31T09:25:35;9.38;;;6.47;;
57828;SDS011;43657;52.698;6.314;2023-07-31T09:28:06;11.23;;;7.30;;
57828;SDS011;43657;52.698;6.314;2023-07-31T09:30:46;8.45;;;5.75;;
57828;SDS011;43657;52.698;6.314;2023-07-31T09:33:15;9.70;;;6.97;;
57828;SDS011;43657;52.698;6.314;2023-07-31T09:35:42;8.35;;;6.35;;
57828;SDS011;43657;52.698;6.314;2023-07-31T09:38:12;5.72;;;3.95;;
57828;SDS011;43657;52.698;6.314;2023-07-31T09:40:40;4.50;;;3.45;;
57828;SDS011;43657;52.698;6.314;2023-07-31T09:43:08;11.93;;;7.90;;
57828;SDS011;43657;52.698;6.314;2023-07-31T09:45:40;11.18;;;7.05;;
57828;SDS011;43657;52.698;6.314;2023-07-31T09:48:11;9.70;;;7.03;;
57828;SDS011;43657;52.698;6.314;2023-07-31T09:50:38;6.75;;;5.93;;
57828;SDS011;43657;52.698;6.314;2023-07-31T09:53:06;9.93;;;7.68;;
57828;SDS011;43657;52.698;6.314;2023-07-31T09:55:33;6.68;;;5.97;;
57828;SDS011;43657;52.698;6.314;2023-07-31T09:58:05;4.35;;;3.95;;
57828;SDS011;43657;52.698;6.314;2023-07-31T10:00:32;10.35;;;6.70;;
57828;SDS011;43657;52.698;6.314;2023-07-31T10:02:58;6.50;;;5.57;;
57828;SDS011;43657;52.698;6.314;2023-07-31T10:05:30;6.50;;;5.35;;
57828;SDS011;43657;52.698;6.314;2023-07-31T10:07:59;5.68;;;5.18;;
57828;SDS011;43657;52.698;6.314;2023-07-31T10:10:25;10.98;;;7.40;;
57828;SDS011;43657;52.698;6.314;2023-07-31T10:12:52;11.90;;;8.35;;
57828;SDS011;43657;52.698;6.314;2023-07-31T10:15:19;5.05;;;4.65;;
57828;SDS011;43657;52.698;6.314;2023-07-31T10:17:49;6.30;;;5.50;;
57828;SDS011;43657;52.698;6.314;2023-07-31T10:20:15;7.63;;;6.22;;
57828;SDS011;43657;52.698;6.314;2023-07-31T10:22:42;7.72;;;6.93;;
57828;SDS011;43657;52.698;6.314;2023-07-31T10:25:08;5.22;;;4.65;;
57828;SDS011;43657;52.698;6.314;2023-07-31T10:27:35;5.28;;;4.45;;
57828;SDS011;43657;52.698;6.314;2023-07-31T10:30:03;4.25;;;3.47;;
57828;SDS011;43657;52.698;6.314;2023-07-31T10:32:30;3.88;;;3.55;;
57828;SDS011;43657;52.698;6.314;2023-07-31T10:34:56;4.97;;;3.30;;
57828;SDS011;43657;52.698;6.314;2023-07-31T10:37:23;3.65;;;3.35;;
57828;SDS011;43657;52.698;6.314;2023-07-31T10:40:04;4.35;;;3.95;;
57828;SDS011;43657;52.698;6.314;2023-07-31T10:42:32;5.13;;;4.63;;
57828;SDS011;43657;52.698;6.314;2023-07-31T10:45:06;4.50;;;4.10;;
57828;SDS011;43657;52.698;6.314;2023-07-31T10:47:38;4.65;;;4.05;;
57828;SDS011;43657;52.698;6.314;2023-07-31T10:52:52;5.53;;;5.03;;
57828;SDS011;43657;52.698;6.314;2023-07-31T10:55:24;7.85;;;5.10;;
57828;SDS011;43657;52.698;6.314;2023-07-31T10:57:55;4.95;;;3.78;;
57828;SDS011;43657;52.698;6.314;2023-07-31T11:00:25;5.28;;;3.70;;
57828;SDS011;43657;52.698;6.314;2023-07-31T11:03:16;4.82;;;3.00;;
57828;SDS011;43657;52.698;6.314;2023-07-31T11:05:48;5.40;;;3.33;;
57828;SDS011;43657;52.698;6.314;2023-07-31T11:11:04;4.85;;;3.88;;
57828;SDS011;43657;52.698;6.314;2023-07-31T11:15:59;3.13;;;2.40;;
57828;SDS011;43657;52.698;6.314;2023-07-31T11:18:26;4.32;;;2.35;;
57828;SDS011;43657;52.698;6.314;2023-07-31T11:20:52;2.45;;;1.90;;
57828;SDS011;43657;52.698;6.314;2023-07-31T11:23:19;3.47;;;2.70;;
57828;SDS011;43657;52.698;6.314;2023-07-31T11:25:45;3.80;;;3.15;;
57828;SDS011;43657;52.698;6.314;2023-07-31T11:28:14;2.30;;;2.10;;
57828;SDS011;43657;52.698;6.314;2023-07-31T11:30:45;4.68;;;2.58;;
57828;SDS011;43657;52.698;6.314;2023-07-31T11:33:17;3.83;;;3.20;;
57828;SDS011;43657;52.698;6.314;2023-07-31T11:35:56;4.18;;;2.97;;
57828;SDS011;43657;52.698;6.314;2023-07-31T11:38:29;8.73;;;3.50;;
57828;SDS011;43657;52.698;6.314;2023-07-31T11:41:03;5.72;;;3.38;;
57828;SDS011;43657;52.698;6.314;2023-07-31T11:43:42;8.35;;;3.25;;
57828;SDS011;43657;52.698;6.314;2023-07-31T11:46:14;13.43;;;3.67;;
57828;SDS011;43657;52.698;6.314;2023-07-31T11:49:29;5.85;;;3.22;;
57828;SDS011;43657;52.698;6.314;2023-07-31T11:52:32;11.80;;;5.38;;
57828;SDS011;43657;52.698;6.314;2023-07-31T11:55:45;7.68;;;4.65;;
57828;SDS011;43657;52.698;6.314;2023-07-31T11:59:43;9.02;;;4.50;;
57828;SDS011;43657;52.698;6.314;2023-07-31T12:03:40;14.90;;;4.47;;
57828;SDS011;43657;52.698;6.314;2023-07-31T12:14:48;9.85;;;4.95;;
57828;SDS011;43657;52.698;6.314;2023-07-31T12:56:42;6.47;;;3.75;;
57828;SDS011;43657;52.698;6.314;2023-07-31T14:01:57;12.40;;;5.80;;
57828;SDS011;43657;52.698;6.314;2023-07-31T14:37:06;8.82;;;5.05;;
57828;SDS011;43657;52.698;6.314;2023-07-31T15:32:12;17.55;;;13.32;;
57828;SDS011;43657;52.698;6.314;2023-07-31T15:36:11;16.25;;;12.88;;
57828;SDS011;43657;52.698;6.314;2023-07-31T15:43:12;15.55;;;13.95;;
57828;SDS011;43657;52.698;6.314;2023-07-31T15:54:02;14.57;;;13.23;;
57828;SDS011;43657;52.698;6.314;2023-07-31T15:57:37;12.43;;;11.32;;
57828;SDS011;43657;52.698;6.314;2023-07-31T16:01:15;12.45;;;11.20;;
57828;SDS011;43657;52.698;6.314;2023-07-31T16:05:29;9.20;;;8.50;;
57828;SDS011;43657;52.698;6.314;2023-07-31T16:17:51;13.00;;;11.65;;
57828;SDS011;43657;52.698;6.314;2023-07-31T16:21:44;10.48;;;9.13;;
57828;SDS011;43657;52.698;6.314;2023-07-31T16:25:39;11.07;;;9.95;;
57828;SDS011;43657;52.698;6.314;2023-07-31T16:28:29;8.68;;;7.82;;
57828;SDS011;43657;52.698;6.314;2023-07-31T16:35:19;10.50;;;9.50;;
57828;SDS011;43657;52.698;6.314;2023-07-31T16:37:58;13.52;;;9.00;;
57828;SDS011;43657;52.698;6.314;2023-07-31T16:40:28;12.30;;;8.38;;
57828;SDS011;43657;52.698;6.314;2023-07-31T16:42:53;11.30;;;9.88;;
57828;SDS011;43657;52.698;6.314;2023-07-31T16:45:19;12.85;;;10.25;;
57828;SDS011;43657;52.698;6.314;2023-07-31T16:47:44;19.45;;;13.88;;
57828;SDS011;43657;52.698;6.314;2023-07-31T16:50:10;10.82;;;9.70;;
57828;SDS011;43657;52.698;6.314;2023-07-31T16:52:36;12.65;;;10.77;;
57828;SDS011;43657;52.698;6.314;2023-07-31T16:55:01;9.82;;;8.93;;
57828;SDS011;43657;52.698;6.314;2023-07-31T16:57:27;18.08;;;10.93;;
57828;SDS011;43657;52.698;6.314;2023-07-31T16:59:53;14.30;;;9.93;;
57828;SDS011;43657;52.698;6.314;2023-07-31T17:02:18;12.30;;;9.68;;
57828;SDS011;43657;52.698;6.314;2023-07-31T17:04:44;10.13;;;9.13;;
57828;SDS011;43657;52.698;6.314;2023-07-31T17:07:10;24.20;;;12.48;;
57828;SDS011;43657;52.698;6.314;2023-07-31T17:09:36;9.32;;;8.35;;
57828;SDS011;43657;52.698;6.314;2023-07-31T17:12:02;13.93;;;9.88;;
57828;SDS011;43657;52.698;6.314;2023-07-31T17:14:28;28.90;;;13.57;;
57828;SDS011;43657;52.698;6.314;2023-07-31T17:16:54;12.60;;;8.15;;
57828;SDS011;43657;52.698;6.314;2023-07-31T17:19:19;14.90;;;9.80;;
57828;SDS011;43657;52.698;6.314;2023-07-31T17:21:45;22.05;;;9.82;;
57828;SDS011;43657;52.698;6.314;2023-07-31T17:24:10;12.23;;;7.78;;
57828;SDS011;43657;52.698;6.314;2023-07-31T17:26:36;9.50;;;6.35;;
57828;SDS011;43657;52.698;6.314;2023-07-31T17:29:01;11.15;;;7.40;;
57828;SDS011;43657;52.698;6.314;2023-07-31T17:31:27;16.27;;;7.28;;
57828;SDS011;43657;52.698;6.314;2023-07-31T17:33:53;16.05;;;6.03;;
57828;SDS011;43657;52.698;6.314;2023-07-31T17:36:19;14.30;;;6.90;;
57828;SDS011;43657;52.698;6.314;2023-07-31T17:38:44;6.40;;;4.30;;
57828;SDS011;43657;52.698;6.314;2023-07-31T17:41:10;13.45;;;5.60;;
57828;SDS011;43657;52.698;6.314;2023-07-31T17:43:36;22.77;;;7.78;;
57828;SDS011;43657;52.698;6.314;2023-07-31T17:46:02;22.88;;;7.10;;
57828;SDS011;43657;52.698;6.314;2023-07-31T17:48:28;13.07;;;5.93;;
57828;SDS011;43657;52.698;6.314;2023-07-31T17:50:54;12.95;;;5.63;;
57828;SDS011;43657;52.698;6.314;2023-07-31T17:53:19;26.55;;;6.38;;
57828;SDS011;43657;52.698;6.314;2023-07-31T17:55:45;16.55;;;3.60;;
57828;SDS011;43657;52.698;6.314;2023-07-31T17:58:12;6.93;;;2.25;;
57828;SDS011;43657;52.698;6.314;2023-07-31T18:00:37;7.72;;;2.38;;
57828;SDS011;43657;52.698;6.314;2023-07-31T18:03:03;2.42;;;1.40;;
57828;SDS011;43657;52.698;6.314;2023-07-31T18:05:31;7.30;;;2.70;;
57828;SDS011;43657;52.698;6.314;2023-07-31T18:07:56;10.48;;;3.80;;
57828;SDS011;43657;52.698;6.314;2023-07-31T18:10:22;7.45;;;2.95;;
57828;SDS011;43657;52.698;6.314;2023-07-31T18:12:48;10.48;;;3.95;;
57828;SDS011;43657;52.698;6.314;2023-07-31T18:15:13;9.70;;;4.50;;
57828;SDS011;43657;52.698;6.314;2023-07-31T18:17:39;8.38;;;4.03;;
57828;SDS011;43657;52.698;6.314;2023-07-31T18:20:04;9.20;;;4.47;;
57828;SDS011;43657;52.698;6.314;2023-07-31T18:22:34;11.05;;;5.22;;
57828;SDS011;43657;52.698;6.314;2023-07-31T18:24:59;10.38;;;4.50;;
57828;SDS011;43657;52.698;6.314;2023-07-31T18:27:25;14.90;;;6.05;;
57828;SDS011;43657;52.698;6.314;2023-07-31T18:29:50;9.02;;;4.72;;
57828;SDS011;43657;52.698;6.314;2023-07-31T18:32:16;5.82;;;3.30;;
57828;SDS011;43657;52.698;6.314;2023-07-31T18:34:42;10.73;;;5.85;;
57828;SDS011;43657;52.698;6.314;2023-07-31T18:37:07;4.35;;;3.50;;
57828;SDS011;43657;52.698;6.314;2023-07-31T18:39:33;10.63;;;5.38;;
57828;SDS011;43657;52.698;6.314;2023-07-31T18:41:58;6.70;;;4.53;;
57828;SDS011;43657;52.698;6.314;2023-07-31T18:44:24;6.10;;;4.63;;
57828;SDS011;43657;52.698;6.314;2023-07-31T18:46:50;5.90;;;4.43;;
57828;SDS011;43657;52.698;6.314;2023-07-31T18:49:15;12.98;;;6.10;;